Main page
METAR-TAF:

METAR-TAF

Airports :

Kuressaare Airport

Kuressaare, Estonia

latitude: 58-13-48N, longitude: 022-30-34E, elevation: 4 m

Current weather observation

The report was made 43 minutes ago, at 15:50 UTC
Wind 10 kt from the East/Northeast
Temperature -1°C
Humidity 100%
Pressure 993 hPa
Visibility: 6000 m
Overcast at a height of 700 ft
light snow

METAR: EEKE 271550Z 06010KT 6000 -SN OVC007 M01/M01 Q0993 R17/290195

Time: 18:33 (16:33 UTC)

Forecast

The report was made 1 hour and 33 minutes ago, at 15:00 UTC
Forecast valid from 27 at 16 UTC to 27 at 22 UTC
Wind 12 kt from the Northeast
Visibility 10 km or more
Broken clouds at a height of 700 ft
Overcast at a height of 1500 ft
Temporary
from 27 at 16 UTC to 27 at 19 UTC
Visibility: 1500 m
Broken clouds at a height of 500 ft
Broken clouds at a height of 1200 ft, Cumulonimbus.
heavy snow showers

TAF: EEKE 271500Z 2716/2722 05012KT 9999 BKN007 OVC015 TEMPO 2716/2719 1500 +SHSN BKN005 BKN012CB

Weather observations and forecasts of more than 4000 airports (METAR and TAF reports).

The available stations are represented by yellow and red dots on the map.

Hover mouse over dot to see the name of the station.

Then click to see weather observations and forecasts.

To change the map : click on the green buttons with a black cross to zoom in, on the green button with a dash to zoom out, or on the green arrows for adjacent maps.


METAR-TAF: